createdAt,value
2022-12-12T00:00:18.020Z,22.67
2022-12-12T00:02:49.921Z,24.97
2022-12-12T00:05:21.365Z,23.43
2022-12-12T00:07:52.655Z,20.97
2022-12-12T00:10:23.931Z,22.40
2022-12-12T00:12:55.257Z,25.93
2022-12-12T00:15:27.761Z,26.00
2022-12-12T00:17:59.070Z,22.73
2022-12-12T00:20:30.369Z,18.70
2022-12-12T00:23:01.695Z,27.33
2022-12-12T00:25:33.043Z,24.73
2022-12-12T00:28:04.539Z,31.93
2022-12-12T00:30:35.819Z,22.07
2022-12-12T00:33:07.085Z,27.23
2022-12-12T00:35:38.480Z,25.33
2022-12-12T00:38:09.973Z,27.37
2022-12-12T00:40:41.248Z,27.87
2022-12-12T00:43:12.662Z,22.03
2022-12-12T00:45:43.924Z,29.77
2022-12-12T00:48:15.192Z,25.97
2022-12-12T00:50:47.013Z,27.70
2022-12-12T00:53:19.057Z,24.40
2022-12-12T00:55:57.839Z,24.87
2022-12-12T00:58:30.739Z,27.10
2022-12-12T01:01:07.781Z,26.60
2022-12-12T01:03:41.069Z,32.60
2022-12-12T01:06:13.080Z,23.80
2022-12-12T01:08:44.436Z,22.07
2022-12-12T01:11:16.467Z,30.67
2022-12-12T01:13:49.447Z,27.60
2022-12-12T01:16:22.067Z,27.50
2022-12-12T01:18:53.540Z,25.97
2022-12-12T01:21:25.102Z,22.93
2022-12-12T01:23:56.429Z,27.50
2022-12-12T01:26:27.806Z,25.27
2022-12-12T01:28:59.052Z,21.70
2022-12-12T01:31:30.455Z,22.37
2022-12-12T01:34:01.752Z,29.20
2022-12-12T01:36:33.414Z,27.70
2022-12-12T01:39:05.723Z,22.07
2022-12-12T01:41:37.678Z,27.30
2022-12-12T01:44:52.594Z,24.63
2022-12-12T01:47:25.355Z,28.87
2022-12-12T01:50:04.465Z,29.57
2022-12-12T01:52:44.297Z,27.33
2022-12-12T01:55:20.496Z,29.03
2022-12-12T01:57:54.574Z,26.83
2022-12-12T02:00:25.933Z,28.80
2022-12-12T02:02:57.669Z,23.93
2022-12-12T02:05:33.775Z,27.80
2022-12-12T02:08:06.356Z,23.20
2022-12-12T02:10:37.662Z,24.47
2022-12-12T02:13:19.421Z,27.00
2022-12-12T02:16:22.459Z,27.67
2022-12-12T02:19:05.048Z,24.00
2022-12-12T02:21:46.298Z,29.37
2022-12-12T02:24:42.082Z,25.53
2022-12-12T02:27:48.216Z,25.17
2022-12-12T02:30:41.073Z,21.67
2022-12-12T02:33:49.664Z,24.93
2022-12-12T02:36:28.766Z,21.50
2022-12-12T02:39:27.379Z,25.20
2022-12-12T02:42:10.628Z,23.50
2022-12-12T02:44:56.341Z,24.40
2022-12-12T02:51:15.621Z,22.47
2022-12-12T02:53:46.961Z,26.03
2022-12-12T02:56:43.183Z,25.03
2022-12-12T02:59:20.841Z,23.93
2022-12-12T03:02:19.256Z,26.07
2022-12-12T03:05:21.354Z,23.67
2022-12-12T03:08:11.349Z,21.67
2022-12-12T03:11:41.223Z,30.73
2022-12-12T03:14:29.432Z,23.87
2022-12-12T03:17:17.529Z,21.53
2022-12-12T03:20:02.328Z,22.73
2022-12-12T03:22:43.502Z,27.93
2022-12-12T03:25:27.850Z,26.83
2022-12-12T03:28:37.980Z,22.43
2022-12-12T03:31:12.195Z,18.73
2022-12-12T03:33:46.880Z,22.37
2022-12-12T03:36:25.864Z,26.03
2022-12-12T03:39:03.245Z,21.23
2022-12-12T03:41:43.433Z,25.60
2022-12-12T03:44:20.305Z,24.85
2022-12-12T03:46:56.407Z,20.87
2022-12-12T03:49:45.265Z,27.05
2022-12-12T03:52:33.409Z,19.83
2022-12-12T03:55:12.485Z,27.42
2022-12-12T03:58:00.539Z,23.27
2022-12-12T04:00:33.641Z,25.75
2022-12-12T04:03:18.316Z,23.60
2022-12-12T04:06:25.994Z,20.92
2022-12-12T04:09:22.438Z,23.55
2022-12-12T04:12:37.770Z,24.13
2022-12-12T04:15:25.211Z,24.83
2022-12-12T04:18:17.162Z,25.63
2022-12-12T04:21:37.417Z,25.13
2022-12-12T04:24:22.799Z,29.27
2022-12-12T04:27:04.769Z,27.27
2022-12-12T04:29:38.723Z,25.25
2022-12-12T04:32:32.641Z,23.52
2022-12-12T04:35:14.015Z,27.43
2022-12-12T04:37:55.189Z,20.40
2022-12-12T04:40:33.759Z,23.20
2022-12-12T04:43:10.183Z,22.00
2022-12-12T04:48:20.586Z,26.05
2022-12-12T04:50:53.255Z,25.80
2022-12-12T04:53:32.373Z,24.87
2022-12-12T04:56:09.339Z,23.50
2022-12-12T04:58:40.772Z,22.73
2022-12-12T05:01:23.241Z,26.47
2022-12-12T05:03:58.353Z,29.37
2022-12-12T05:06:44.953Z,33.90
2022-12-12T05:09:17.847Z,26.90
2022-12-12T05:11:49.692Z,23.83
2022-12-12T05:14:21.370Z,31.07
2022-12-12T05:16:55.682Z,30.20
2022-12-12T05:19:26.952Z,34.00
2022-12-12T05:21:58.222Z,25.77
2022-12-12T05:24:31.251Z,28.57
2022-12-12T05:27:02.636Z,28.57
2022-12-12T05:29:34.065Z,21.80
2022-12-12T05:32:05.348Z,28.63
2022-12-12T05:34:36.611Z,26.17
2022-12-12T05:37:07.887Z,28.10
2022-12-12T05:39:39.199Z,24.97
2022-12-12T05:42:10.449Z,24.67
2022-12-12T05:44:41.796Z,22.17
2022-12-12T05:47:13.093Z,21.27
2022-12-12T05:49:45.187Z,27.67
2022-12-12T05:52:16.664Z,28.30
2022-12-12T05:54:47.945Z,27.70
2022-12-12T05:57:19.654Z,25.53
2022-12-12T05:59:50.917Z,26.77
2022-12-12T06:02:22.230Z,28.53
2022-12-12T06:04:53.624Z,27.77
2022-12-12T06:07:25.008Z,25.40
2022-12-12T06:09:56.315Z,24.73
2022-12-12T06:12:27.676Z,25.70
2022-12-12T06:14:58.979Z,31.77
2022-12-12T06:17:33.271Z,22.67
2022-12-12T06:20:05.554Z,25.33
2022-12-12T06:22:36.940Z,27.73
2022-12-12T06:25:08.939Z,30.95
2022-12-12T06:27:40.194Z,23.92
2022-12-12T06:30:11.928Z,26.13
2022-12-12T06:32:43.323Z,25.95
2022-12-12T06:35:14.996Z,25.05
2022-12-12T06:37:48.347Z,23.60
2022-12-12T06:40:19.851Z,26.50
2022-12-12T06:42:51.206Z,27.33
2022-12-12T06:45:22.618Z,28.20
2022-12-12T06:47:53.908Z,29.92
2022-12-12T06:50:25.294Z,32.42
2022-12-12T06:52:56.628Z,35.92
2022-12-12T06:55:27.955Z,32.65
2022-12-12T06:57:59.339Z,32.38
2022-12-12T07:00:30.803Z,31.95
2022-12-12T07:03:02.187Z,35.33
2022-12-12T07:05:33.626Z,30.38
2022-12-12T07:08:04.973Z,28.05
2022-12-12T07:10:36.571Z,30.88
2022-12-12T07:13:08.169Z,38.15
2022-12-12T07:15:48.289Z,30.98
2022-12-12T07:18:19.711Z,26.98
2022-12-12T07:20:51.042Z,26.85
2022-12-12T07:23:22.300Z,26.05
2022-12-12T07:25:53.559Z,24.50
2022-12-12T07:28:25.059Z,27.30
2022-12-12T07:30:56.449Z,23.67
2022-12-12T07:33:39.556Z,24.80
2022-12-12T07:36:14.545Z,26.98
2022-12-12T07:38:45.919Z,25.77
2022-12-12T07:41:18.810Z,27.73
2022-12-12T07:43:50.917Z,26.25
2022-12-12T07:46:25.170Z,26.88
2022-12-12T07:48:57.018Z,27.52
2022-12-12T07:51:29.609Z,23.45
2022-12-12T07:54:01.141Z,25.75
2022-12-12T07:56:32.653Z,22.25
2022-12-12T07:59:03.916Z,23.92
2022-12-12T08:01:35.656Z,30.63
2022-12-12T08:04:07.024Z,27.35
2022-12-12T08:06:38.600Z,24.38
2022-12-12T08:09:09.941Z,32.33
2022-12-12T08:11:46.132Z,29.52
2022-12-12T08:14:17.936Z,24.58
2022-12-12T08:16:49.241Z,24.25
2022-12-12T08:19:20.594Z,25.58
2022-12-12T08:21:51.891Z,33.90
2022-12-12T08:24:23.244Z,23.63
2022-12-12T08:26:54.559Z,30.65
2022-12-12T08:29:25.936Z,31.17
2022-12-12T08:31:57.611Z,29.13
2022-12-12T08:34:28.942Z,31.00
2022-12-12T08:37:00.304Z,28.23
2022-12-12T08:39:31.655Z,27.13
2022-12-12T08:42:03.722Z,27.58
2022-12-12T08:44:35.078Z,25.80
2022-12-12T08:47:06.722Z,29.25
2022-12-12T08:49:38.055Z,28.58
2022-12-12T08:52:10.307Z,32.38
2022-12-12T08:54:41.661Z,27.92
2022-12-12T08:57:12.960Z,28.40
2022-12-12T08:59:44.276Z,36.53
2022-12-12T09:02:15.706Z,29.80
2022-12-12T09:04:47.123Z,26.45
2022-12-12T09:07:18.444Z,30.60
2022-12-12T09:09:49.784Z,24.55
2022-12-12T09:12:21.144Z,27.52
2022-12-12T09:14:52.505Z,26.15
2022-12-12T09:17:23.836Z,45.40
2022-12-12T09:19:55.226Z,42.90
2022-12-12T09:22:26.853Z,30.65
2022-12-12T09:24:58.280Z,34.38
2022-12-12T09:27:29.706Z,29.70
2022-12-12T09:30:00.998Z,41.58
2022-12-12T09:32:32.267Z,37.25
2022-12-12T09:35:03.692Z,34.97
2022-12-12T09:37:35.090Z,34.67
2022-12-12T09:40:08.075Z,33.08
2022-12-12T09:42:47.948Z,32.30
2022-12-12T09:45:20.559Z,33.70
2022-12-12T09:47:58.120Z,36.73
2022-12-12T09:50:44.863Z,38.40
2022-12-12T09:53:20.111Z,36.93
2022-12-12T09:56:19.315Z,39.38
2022-12-12T09:59:00.826Z,37.50
2022-12-12T10:01:52.879Z,35.83
2022-12-12T10:04:39.869Z,36.33
2022-12-12T10:10:02.907Z,39.43
2022-12-12T10:12:34.644Z,36.00
2022-12-12T10:15:13.721Z,38.90
2022-12-12T10:17:46.678Z,39.77
2022-12-12T10:20:27.479Z,40.63
2022-12-12T10:23:19.182Z,36.00
2022-12-12T10:26:02.145Z,38.03
2022-12-12T10:28:35.224Z,41.93
2022-12-12T10:31:40.690Z,33.33
2022-12-12T10:34:33.992Z,43.07
2022-12-12T10:37:39.503Z,38.33
2022-12-12T10:40:42.002Z,37.30
2022-12-12T10:43:41.020Z,42.23
2022-12-12T10:46:20.517Z,37.13
2022-12-12T10:48:52.240Z,41.67
2022-12-12T10:51:27.435Z,42.27
2022-12-12T10:53:58.688Z,43.20
2022-12-12T10:56:30.136Z,41.20
2022-12-12T10:59:01.848Z,42.37
2022-12-12T11:04:31.452Z,37.10
2022-12-12T11:07:02.708Z,46.90
2022-12-12T11:09:34.032Z,38.90
2022-12-12T11:12:16.480Z,44.13
2022-12-12T11:14:52.835Z,44.23
2022-12-12T11:17:29.396Z,46.73
2022-12-12T11:20:09.712Z,38.40
2022-12-12T11:22:40.996Z,33.20
2022-12-12T11:25:44.623Z,39.00
2022-12-12T11:28:23.115Z,36.67
2022-12-12T11:30:56.446Z,37.20
2022-12-12T11:33:35.324Z,42.77
2022-12-12T11:36:06.992Z,29.93
2022-12-12T11:38:40.786Z,37.87
2022-12-12T11:41:12.386Z,39.53
2022-12-12T11:43:49.753Z,43.77
2022-12-12T11:46:31.936Z,44.20
2022-12-12T11:49:05.032Z,33.97
2022-12-12T11:51:40.484Z,37.17
2022-12-12T11:54:12.025Z,33.47
2022-12-12T11:56:50.095Z,31.67
2022-12-12T11:59:30.387Z,27.60
2022-12-12T12:02:22.946Z,35.53
2022-12-12T12:05:27.829Z,28.73
2022-12-12T12:08:22.526Z,32.83
2022-12-12T12:11:15.235Z,31.97
2022-12-12T12:14:02.855Z,28.27
2022-12-12T12:16:47.016Z,35.57
2022-12-12T12:19:45.784Z,27.77
2022-12-12T12:22:35.606Z,37.97
2022-12-12T12:25:25.468Z,33.83
2022-12-12T12:28:04.525Z,32.60
2022-12-12T12:31:00.443Z,32.40
2022-12-12T12:33:48.436Z,27.33
2022-12-12T12:36:24.798Z,30.37
2022-12-12T12:39:04.358Z,28.17
2022-12-12T12:41:50.851Z,31.90
2022-12-12T12:44:39.323Z,25.55
2022-12-12T12:47:31.258Z,29.57
2022-12-12T12:50:16.138Z,32.93
2022-12-12T12:52:56.909Z,28.03
2022-12-12T12:55:43.847Z,27.07
2022-12-12T13:01:02.452Z,27.83
2022-12-12T13:03:47.806Z,31.87
2022-12-12T13:06:27.695Z,30.63
2022-12-12T13:09:18.026Z,25.57
2022-12-12T13:11:53.110Z,30.30
2022-12-12T13:14:48.568Z,24.13
2022-12-12T13:17:44.696Z,30.63
2022-12-12T13:20:20.906Z,28.67
2022-12-12T13:23:15.453Z,32.30
2022-12-12T13:26:12.863Z,26.03
2022-12-12T13:31:42.730Z,30.80
2022-12-12T13:34:20.584Z,28.40
2022-12-12T13:36:53.779Z,32.47
2022-12-12T13:39:32.938Z,29.50
2022-12-12T13:42:07.391Z,27.87
2022-12-12T13:44:47.297Z,25.37
2022-12-12T13:47:21.842Z,27.03
2022-12-12T13:50:02.576Z,31.10
2022-12-12T13:52:42.078Z,40.53
2022-12-12T13:55:13.284Z,33.37
2022-12-12T13:58:02.510Z,33.27
2022-12-12T14:00:41.596Z,31.53
2022-12-12T14:03:12.912Z,35.03
2022-12-12T14:05:49.898Z,34.83
2022-12-12T14:08:26.201Z,29.73
2022-12-12T14:11:01.711Z,31.60
2022-12-12T14:13:42.853Z,22.33
2022-12-12T14:16:14.396Z,34.47
2022-12-12T14:18:51.544Z,34.60
2022-12-12T14:21:44.352Z,30.47
2022-12-12T14:24:33.767Z,32.70
2022-12-12T14:27:09.682Z,28.90
2022-12-12T14:29:43.283Z,37.05
2022-12-12T14:32:34.531Z,28.53
2022-12-12T14:35:28.988Z,36.60
2022-12-12T14:38:34.343Z,38.50
2022-12-12T14:41:14.002Z,35.53
2022-12-12T14:44:37.120Z,35.63
2022-12-12T14:46:44.066Z,33.00
2022-12-12T14:49:17.692Z,37.63
2022-12-12T14:51:51.979Z,36.43
2022-12-12T14:54:24.924Z,33.50
2022-12-12T14:57:01.357Z,35.13
2022-12-12T15:02:18.140Z,33.60
2022-12-12T15:04:58.165Z,33.07
2022-12-12T15:07:38.363Z,32.30
2022-12-12T15:10:24.116Z,30.10
2022-12-12T15:12:55.356Z,42.63
2022-12-12T15:15:31.582Z,36.73
2022-12-12T15:18:02.968Z,39.00
2022-12-12T15:20:35.204Z,36.13
2022-12-12T15:23:07.340Z,35.60
2022-12-12T15:25:46.572Z,43.97
2022-12-12T15:28:21.003Z,25.90
2022-12-12T15:30:53.688Z,33.87
2022-12-12T15:33:27.145Z,37.27
2022-12-12T15:36:04.925Z,38.47
2022-12-12T15:38:36.396Z,30.77
2022-12-12T15:41:13.531Z,37.17
2022-12-12T15:43:45.288Z,36.07
2022-12-12T15:46:16.944Z,35.20
2022-12-12T15:48:52.185Z,34.13
2022-12-12T15:51:29.985Z,34.43
2022-12-12T15:54:02.516Z,37.03
2022-12-12T15:56:33.800Z,33.40
2022-12-12T15:59:05.008Z,43.07
2022-12-12T16:01:36.487Z,38.27
2022-12-12T16:04:11.370Z,34.43
2022-12-12T16:06:44.724Z,39.17
2022-12-12T16:09:21.686Z,41.67
2022-12-12T16:11:57.515Z,38.47
2022-12-12T16:14:42.147Z,36.00
2022-12-12T16:17:23.198Z,39.40
2022-12-12T16:20:00.643Z,29.60
2022-12-12T16:22:43.894Z,40.35
2022-12-12T16:25:27.217Z,44.90
2022-12-12T16:28:08.069Z,38.97
2022-12-12T16:30:41.752Z,41.20
2022-12-12T16:33:25.360Z,41.83
2022-12-12T16:35:59.178Z,44.58
2022-12-12T16:38:31.023Z,45.58
2022-12-12T16:41:17.139Z,38.95
2022-12-12T16:43:48.587Z,39.05
2022-12-12T16:46:21.649Z,61.35
2022-12-12T16:48:53.307Z,46.97
2022-12-12T16:51:28.396Z,65.78
2022-12-12T16:53:59.888Z,54.30
2022-12-12T16:56:31.205Z,55.00
2022-12-12T16:59:02.517Z,56.83
2022-12-12T17:01:38.583Z,52.80
2022-12-12T17:06:50.247Z,39.95
2022-12-12T17:09:25.475Z,55.75
2022-12-12T17:11:59.637Z,50.83
2022-12-12T17:14:30.990Z,46.08
2022-12-12T17:17:05.433Z,41.53
2022-12-12T17:19:36.756Z,47.97
2022-12-12T17:22:08.118Z,43.50
2022-12-12T17:24:39.465Z,48.55
2022-12-12T17:27:10.751Z,41.70
2022-12-12T17:29:42.004Z,40.22
2022-12-12T17:32:13.332Z,40.72
2022-12-12T17:34:44.655Z,40.85
2022-12-12T17:37:15.951Z,43.80
2022-12-12T17:39:47.324Z,68.32
2022-12-12T17:42:18.850Z,59.55
2022-12-12T17:44:50.293Z,45.90
2022-12-12T17:47:21.726Z,44.63
2022-12-12T17:49:53.008Z,42.83
2022-12-12T17:52:24.321Z,48.22
2022-12-12T17:55:53.570Z,40.20
2022-12-12T17:57:46.833Z,63.78
2022-12-12T18:00:18.342Z,54.15
2022-12-12T18:02:49.618Z,57.85
2022-12-12T18:05:20.960Z,51.92
2022-12-12T18:07:52.381Z,57.72
2022-12-12T18:10:23.696Z,59.08
2022-12-12T18:12:55.089Z,52.53
2022-12-12T18:15:26.343Z,57.15
2022-12-12T18:17:57.613Z,56.38
2022-12-12T18:20:31.491Z,45.38
2022-12-12T18:23:03.367Z,45.17
2022-12-12T18:25:37.374Z,51.22
2022-12-12T18:28:12.179Z,43.22
2022-12-12T18:30:43.513Z,48.67
2022-12-12T18:33:14.770Z,42.60
2022-12-12T18:35:46.023Z,35.60
2022-12-12T18:38:18.985Z,40.20
2022-12-12T18:40:52.680Z,40.17
2022-12-12T18:43:26.106Z,30.48
2022-12-12T18:46:02.960Z,33.20
2022-12-12T18:48:35.258Z,35.63
2022-12-12T18:51:11.412Z,45.17
2022-12-12T18:53:44.270Z,40.50
2022-12-12T18:56:19.179Z,49.10
2022-12-12T18:58:53.115Z,51.58
2022-12-12T19:01:27.628Z,48.15
2022-12-12T19:04:04.529Z,45.60
2022-12-12T19:06:40.034Z,51.03
2022-12-12T19:09:16.668Z,46.20
2022-12-12T19:11:49.434Z,48.65
2022-12-12T19:14:21.505Z,54.60
2022-12-12T19:16:52.919Z,47.58
2022-12-12T19:19:24.404Z,49.55
2022-12-12T19:21:55.670Z,40.80
2022-12-12T19:24:27.066Z,41.42
2022-12-12T19:26:58.326Z,49.72
2022-12-12T19:29:29.648Z,42.03
2022-12-12T19:32:00.991Z,51.90
2022-12-12T19:34:32.360Z,42.33
2022-12-12T19:37:03.852Z,42.80
2022-12-12T19:39:35.287Z,39.33
2022-12-12T19:42:06.693Z,41.85
2022-12-12T19:44:43.187Z,42.30
2022-12-12T19:47:16.666Z,39.42
2022-12-12T19:49:49.462Z,41.13
2022-12-12T19:52:21.104Z,49.90
2022-12-12T19:54:52.624Z,38.60
2022-12-12T19:57:26.162Z,49.05
2022-12-12T19:59:57.507Z,67.53
2022-12-12T20:02:29.141Z,44.80
2022-12-12T20:05:00.455Z,41.80
2022-12-12T20:07:31.752Z,41.88
2022-12-12T20:10:03.378Z,61.47
2022-12-12T20:12:34.653Z,59.67
2022-12-12T20:15:06.499Z,54.78
2022-12-12T20:17:37.855Z,57.60
2022-12-12T20:20:10.843Z,63.28
2022-12-12T20:22:42.198Z,55.38
2022-12-12T20:25:13.487Z,65.53
2022-12-12T20:27:44.986Z,52.83
2022-12-12T20:30:16.740Z,69.35
2022-12-12T20:32:48.323Z,58.50
2022-12-12T20:35:19.661Z,68.25
2022-12-12T20:37:51.017Z,55.15
2022-12-12T20:40:22.586Z,49.83
2022-12-12T20:43:01.615Z,52.67
2022-12-12T20:45:38.486Z,53.15
2022-12-12T20:48:09.967Z,57.15
2022-12-12T20:50:41.636Z,51.92
2022-12-12T20:53:13.234Z,67.32
2022-12-12T20:55:44.767Z,47.50
2022-12-12T20:58:16.083Z,52.38
2022-12-12T21:00:47.388Z,45.70
2022-12-12T21:03:18.712Z,42.78
2022-12-12T21:05:50.488Z,44.65
2022-12-12T21:08:21.883Z,42.15
2022-12-12T21:10:53.197Z,49.50
2022-12-12T21:13:24.512Z,40.20
2022-12-12T21:15:55.822Z,41.67
2022-12-12T21:18:27.212Z,46.60
2022-12-12T21:20:58.451Z,45.17
2022-12-12T21:23:30.256Z,46.92
2022-12-12T21:26:06.422Z,63.53
2022-12-12T21:28:38.290Z,66.90
2022-12-12T21:31:11.697Z,61.13
2022-12-12T21:33:43.696Z,64.30
2022-12-12T21:36:17.742Z,57.20
2022-12-12T21:38:50.022Z,59.40
2022-12-12T21:41:22.796Z,51.58
2022-12-12T21:43:59.299Z,58.72
2022-12-12T21:46:30.615Z,57.60
2022-12-12T21:49:19.903Z,64.00
2022-12-12T21:51:52.532Z,60.67
2022-12-12T21:54:24.056Z,66.15
2022-12-12T21:56:56.905Z,52.53
2022-12-12T21:59:28.951Z,56.50
2022-12-12T22:02:00.603Z,55.53
2022-12-12T22:04:32.147Z,45.38
2022-12-12T22:07:03.387Z,53.85
2022-12-12T22:09:34.633Z,55.20
2022-12-12T22:12:06.441Z,50.33
2022-12-12T22:14:37.689Z,48.70
2022-12-12T22:17:08.940Z,55.95
2022-12-12T22:19:40.172Z,54.40
2022-12-12T22:22:11.420Z,47.00
2022-12-12T22:24:42.686Z,47.30
2022-12-12T22:27:13.979Z,55.15
2022-12-12T22:29:45.331Z,47.88
2022-12-12T22:32:16.690Z,46.67
2022-12-12T22:34:48.488Z,51.38
2022-12-12T22:37:19.792Z,48.20
2022-12-12T22:39:51.048Z,50.03
2022-12-12T22:42:22.304Z,49.47
2022-12-12T22:44:53.548Z,51.90
2022-12-12T22:47:24.886Z,50.05
2022-12-12T22:49:56.261Z,53.28
2022-12-12T22:52:28.841Z,49.13
2022-12-12T22:55:00.304Z,59.38
2022-12-12T22:57:31.603Z,50.67
2022-12-12T23:00:04.459Z,55.63
2022-12-12T23:02:35.728Z,51.33
2022-12-12T23:05:07.324Z,45.45
2022-12-12T23:07:38.690Z,51.05
2022-12-12T23:10:10.109Z,43.15
2022-12-12T23:12:41.395Z,47.00
2022-12-12T23:15:13.047Z,54.50
2022-12-12T23:17:44.503Z,44.95
2022-12-12T23:20:15.887Z,40.05
2022-12-12T23:22:47.195Z,49.53
2022-12-12T23:25:18.461Z,41.53
2022-12-12T23:27:49.740Z,41.83
2022-12-12T23:30:20.993Z,46.13
2022-12-12T23:32:52.443Z,36.05
2022-12-12T23:35:23.686Z,39.95
2022-12-12T23:37:54.941Z,42.90
2022-12-12T23:40:26.231Z,45.28
2022-12-12T23:42:57.479Z,40.65
2022-12-12T23:45:29.407Z,36.42
2022-12-12T23:48:00.703Z,36.53
2022-12-12T23:50:32.616Z,37.83
2022-12-12T23:53:09.050Z,49.40
2022-12-12T23:55:41.769Z,41.78
2022-12-12T23:58:13.121Z,40.58
